sensor_id;sensor_type;location;lat;lon;timestamp;temperature;humidity
12700;DHT22;6414;49.570;6.060;2022-12-05T00:01:41;1.30;99.90
12700;DHT22;6414;49.570;6.060;2022-12-05T00:04:26;1.30;99.90
12700;DHT22;6414;49.570;6.060;2022-12-05T00:07:11;1.30;99.90
12700;DHT22;6414;49.570;6.060;2022-12-05T00:09:56;1.30;99.90
12700;DHT22;6414;49.570;6.060;2022-12-05T00:12:42;1.30;99.90
12700;DHT22;6414;49.570;6.060;2022-12-05T00:15:28;1.30;99.90
12700;DHT22;6414;49.570;6.060;2022-12-05T00:18:13;1.40;99.90
12700;DHT22;6414;49.570;6.060;2022-12-05T00:20:59;1.40;99.90
12700;DHT22;6414;49.570;6.060;2022-12-05T00:23:44;1.40;99.90
12700;DHT22;6414;49.570;6.060;2022-12-05T00:26:30;1.50;99.90
12700;DHT22;6414;49.570;6.060;2022-12-05T00:29:14;1.50;99.90
12700;DHT22;6414;49.570;6.060;2022-12-05T00:32:00;1.40;99.90
12700;DHT22;6414;49.570;6.060;2022-12-05T00:34:46;1.40;99.90
12700;DHT22;6414;49.570;6.060;2022-12-05T00:37:31;1.40;99.90
12700;DHT22;6414;49.570;6.060;2022-12-05T00:40:17;1.30;99.90
12700;DHT22;6414;49.570;6.060;2022-12-05T00:43:03;1.40;99.90
12700;DHT22;6414;49.570;6.060;2022-12-05T00:45:49;1.40;99.90
12700;DHT22;6414;49.570;6.060;2022-12-05T00:48:34;1.40;99.90
12700;DHT22;6414;49.570;6.060;2022-12-05T00:51:21;1.50;99.90
12700;DHT22;6414;49.570;6.060;2022-12-05T00:54:07;1.60;99.90
12700;DHT22;6414;49.570;6.060;2022-12-05T00:56:51;1.50;99.90
12700;DHT22;6414;49.570;6.060;2022-12-05T00:59:36;1.40;99.90
12700;DHT22;6414;49.570;6.060;2022-12-05T01:02:22;1.40;99.90
12700;DHT22;6414;49.570;6.060;2022-12-05T01:05:08;1.30;99.90
12700;DHT22;6414;49.570;6.060;2022-12-05T01:07:53;1.40;99.90
12700;DHT22;6414;49.570;6.060;2022-12-05T01:10:38;1.40;99.90
12700;DHT22;6414;49.570;6.060;2022-12-05T01:13:24;1.40;99.90
12700;DHT22;6414;49.570;6.060;2022-12-05T01:16:20;1.40;99.90
12700;DHT22;6414;49.570;6.060;2022-12-05T01:19:03;1.30;99.90
12700;DHT22;6414;49.570;6.060;2022-12-05T01:21:46;1.40;99.90
12700;DHT22;6414;49.570;6.060;2022-12-05T01:24:32;1.50;99.90
12700;DHT22;6414;49.570;6.060;2022-12-05T01:27:17;1.30;99.90
12700;DHT22;6414;49.570;6.060;2022-12-05T01:30:03;1.30;99.90
12700;DHT22;6414;49.570;6.060;2022-12-05T01:32:48;1.30;99.90
12700;DHT22;6414;49.570;6.060;2022-12-05T01:35:34;1.30;99.90
12700;DHT22;6414;49.570;6.060;2022-12-05T01:38:19;1.30;99.90
12700;DHT22;6414;49.570;6.060;2022-12-05T01:41:05;1.20;99.90
12700;DHT22;6414;49.570;6.060;2022-12-05T01:44:06;1.30;99.90
12700;DHT22;6414;49.570;6.060;2022-12-05T01:46:51;1.30;99.90
12700;DHT22;6414;49.570;6.060;2022-12-05T01:49:37;1.30;99.90
12700;DHT22;6414;49.570;6.060;2022-12-05T01:52:23;1.30;99.90
12700;DHT22;6414;49.570;6.060;2022-12-05T01:55:09;1.30;99.90
12700;DHT22;6414;49.570;6.060;2022-12-05T01:57:53;1.40;99.90
12700;DHT22;6414;49.570;6.060;2022-12-05T02:00:39;1.40;99.90
12700;DHT22;6414;49.570;6.060;2022-12-05T02:03:24;1.30;99.90
12700;DHT22;6414;49.570;6.060;2022-12-05T02:06:11;1.40;99.90
12700;DHT22;6414;49.570;6.060;2022-12-05T02:08:56;1.40;99.90
12700;DHT22;6414;49.570;6.060;2022-12-05T02:11:52;1.20;99.90
12700;DHT22;6414;49.570;6.060;2022-12-05T02:20:34;1.40;99.90
12700;DHT22;6414;49.570;6.060;2022-12-05T02:23:37;1.50;99.90
12700;DHT22;6414;49.570;6.060;2022-12-05T02:26:51;1.50;99.90
12700;DHT22;6414;49.570;6.060;2022-12-05T02:30:05;1.50;99.90
12700;DHT22;6414;49.570;6.060;2022-12-05T02:33:15;1.40;99.90
12700;DHT22;6414;49.570;6.060;2022-12-05T02:36:16;1.30;99.90
12700;DHT22;6414;49.570;6.060;2022-12-05T02:39:05;1.10;99.90
12700;DHT22;6414;49.570;6.060;2022-12-05T02:41:50;1.30;99.90
12700;DHT22;6414;49.570;6.060;2022-12-05T02:44:41;1.20;99.90
12700;DHT22;6414;49.570;6.060;2022-12-05T02:47:26;1.20;99.90
12700;DHT22;6414;49.570;6.060;2022-12-05T02:50:11;1.20;99.90
12700;DHT22;6414;49.570;6.060;2022-12-05T02:52:57;1.20;99.90
12700;DHT22;6414;49.570;6.060;2022-12-05T02:55:42;1.20;99.90
12700;DHT22;6414;49.570;6.060;2022-12-05T02:58:30;1.30;99.90
12700;DHT22;6414;49.570;6.060;2022-12-05T03:01:12;1.30;99.90
12700;DHT22;6414;49.570;6.060;2022-12-05T03:03:58;1.30;99.90
12700;DHT22;6414;49.570;6.060;2022-12-05T03:06:56;1.20;99.90
12700;DHT22;6414;49.570;6.060;2022-12-05T03:10:03;1.20;99.90
12700;DHT22;6414;49.570;6.060;2022-12-05T03:12:30;1.20;99.90
12700;DHT22;6414;49.570;6.060;2022-12-05T03:15:18;1.20;99.90
12700;DHT22;6414;49.570;6.060;2022-12-05T03:18:10;1.30;99.90
12700;DHT22;6414;49.570;6.060;2022-12-05T03:20:49;1.30;99.90
12700;DHT22;6414;49.570;6.060;2022-12-05T03:23:35;1.30;99.90
12700;DHT22;6414;49.570;6.060;2022-12-05T03:29:46;1.40;99.90
12700;DHT22;6414;49.570;6.060;2022-12-05T03:35:47;1.40;99.90
12700;DHT22;6414;49.570;6.060;2022-12-05T03:38:39;1.30;99.90
12700;DHT22;6414;49.570;6.060;2022-12-05T03:41:25;1.40;99.90
12700;DHT22;6414;49.570;6.060;2022-12-05T03:44:26;1.40;99.90
12700;DHT22;6414;49.570;6.060;2022-12-05T03:47:18;1.50;99.90
12700;DHT22;6414;49.570;6.060;2022-12-05T03:50:06;1.40;99.90
12700;DHT22;6414;49.570;6.060;2022-12-05T03:52:53;1.40;99.90
12700;DHT22;6414;49.570;6.060;2022-12-05T03:55:32;1.40;99.90
12700;DHT22;6414;49.570;6.060;2022-12-05T03:58:20;1.50;99.90
12700;DHT22;6414;49.570;6.060;2022-12-05T04:01:03;1.50;99.90
12700;DHT22;6414;49.570;6.060;2022-12-05T04:03:51;1.50;99.90
12700;DHT22;6414;49.570;6.060;2022-12-05T04:06:36;1.40;99.90
12700;DHT22;6414;49.570;6.060;2022-12-05T04:09:22;1.40;99.90
12700;DHT22;6414;49.570;6.060;2022-12-05T04:12:07;1.30;99.90
12700;DHT22;6414;49.570;6.060;2022-12-05T04:14:58;1.40;99.90
12700;DHT22;6414;49.570;6.060;2022-12-05T04:17:44;1.50;99.90
12700;DHT22;6414;49.570;6.060;2022-12-05T04:20:34;1.60;99.90
12700;DHT22;6414;49.570;6.060;2022-12-05T04:23:37;1.50;99.90
12700;DHT22;6414;49.570;6.060;2022-12-05T04:26:23;1.50;99.90
12700;DHT22;6414;49.570;6.060;2022-12-05T04:29:13;1.40;99.90
12700;DHT22;6414;49.570;6.060;2022-12-05T04:32:00;1.30;99.90
12700;DHT22;6414;49.570;6.060;2022-12-05T04:34:41;1.20;99.90
12700;DHT22;6414;49.570;6.060;2022-12-05T04:37:28;1.20;99.90
12700;DHT22;6414;49.570;6.060;2022-12-05T04:40:23;1.20;99.90
12700;DHT22;6414;49.570;6.060;2022-12-05T04:43:05;1.20;99.90
12700;DHT22;6414;49.570;6.060;2022-12-05T04:45:50;1.40;99.90
12700;DHT22;6414;49.570;6.060;2022-12-05T04:48:36;1.30;99.90
12700;DHT22;6414;49.570;6.060;2022-12-05T04:51:22;1.20;99.90
12700;DHT22;6414;49.570;6.060;2022-12-05T04:54:14;1.20;99.90
12700;DHT22;6414;49.570;6.060;2022-12-05T05:00:04;1.20;99.90
12700;DHT22;6414;49.570;6.060;2022-12-05T05:02:57;1.10;99.90
12700;DHT22;6414;49.570;6.060;2022-12-05T05:05:39;1.10;99.90
12700;DHT22;6414;49.570;6.060;2022-12-05T05:08:25;1.20;99.90
12700;DHT22;6414;49.570;6.060;2022-12-05T05:11:20;1.10;99.90
12700;DHT22;6414;49.570;6.060;2022-12-05T05:14:04;1.10;99.90
12700;DHT22;6414;49.570;6.060;2022-12-05T05:16:50;1.10;99.90
12700;DHT22;6414;49.570;6.060;2022-12-05T05:19:35;1.10;99.90
12700;DHT22;6414;49.570;6.060;2022-12-05T05:22:20;1.10;99.90
12700;DHT22;6414;49.570;6.060;2022-12-05T05:25:05;1.10;99.90
12700;DHT22;6414;49.570;6.060;2022-12-05T05:27:52;1.00;99.90
12700;DHT22;6414;49.570;6.060;2022-12-05T05:30:36;1.10;99.90
12700;DHT22;6414;49.570;6.060;2022-12-05T05:33:22;1.10;99.90
12700;DHT22;6414;49.570;6.060;2022-12-05T05:36:09;1.00;99.90
12700;DHT22;6414;49.570;6.060;2022-12-05T05:38:58;1.10;99.90
12700;DHT22;6414;49.570;6.060;2022-12-05T05:41:42;1.10;99.90
12700;DHT22;6414;49.570;6.060;2022-12-05T05:44:27;1.20;99.90
12700;DHT22;6414;49.570;6.060;2022-12-05T05:47:12;1.20;99.90
12700;DHT22;6414;49.570;6.060;2022-12-05T05:49:59;1.20;99.90
12700;DHT22;6414;49.570;6.060;2022-12-05T05:52:44;1.20;99.90
12700;DHT22;6414;49.570;6.060;2022-12-05T05:55:30;1.30;99.90
12700;DHT22;6414;49.570;6.060;2022-12-05T05:58:17;1.40;99.90
12700;DHT22;6414;49.570;6.060;2022-12-05T06:01:06;1.40;99.90
12700;DHT22;6414;49.570;6.060;2022-12-05T06:03:51;1.50;99.90
12700;DHT22;6414;49.570;6.060;2022-12-05T06:06:37;1.50;99.90
12700;DHT22;6414;49.570;6.060;2022-12-05T06:09:22;1.50;99.90
12700;DHT22;6414;49.570;6.060;2022-12-05T06:12:08;1.40;99.90
12700;DHT22;6414;49.570;6.060;2022-12-05T06:14:55;1.40;99.90
12700;DHT22;6414;49.570;6.060;2022-12-05T06:17:40;1.40;99.90
12700;DHT22;6414;49.570;6.060;2022-12-05T06:20:25;1.40;99.90
12700;DHT22;6414;49.570;6.060;2022-12-05T06:23:11;1.50;99.90
12700;DHT22;6414;49.570;6.060;2022-12-05T06:25:57;1.30;99.90
12700;DHT22;6414;49.570;6.060;2022-12-05T06:28:43;1.30;99.90
12700;DHT22;6414;49.570;6.060;2022-12-05T06:31:28;1.30;99.90
12700;DHT22;6414;49.570;6.060;2022-12-05T06:34:14;1.40;99.90
12700;DHT22;6414;49.570;6.060;2022-12-05T06:36:59;1.50;99.90
12700;DHT22;6414;49.570;6.060;2022-12-05T06:39:44;1.50;99.90
12700;DHT22;6414;49.570;6.060;2022-12-05T06:42:30;1.50;99.90
12700;DHT22;6414;49.570;6.060;2022-12-05T06:45:16;1.50;99.90
12700;DHT22;6414;49.570;6.060;2022-12-05T06:48:02;1.60;99.90
12700;DHT22;6414;49.570;6.060;2022-12-05T06:50:50;1.60;99.90
12700;DHT22;6414;49.570;6.060;2022-12-05T06:53:36;1.60;99.90
12700;DHT22;6414;49.570;6.060;2022-12-05T06:56:21;1.60;99.90
12700;DHT22;6414;49.570;6.060;2022-12-05T06:59:08;1.50;99.90
12700;DHT22;6414;49.570;6.060;2022-12-05T07:01:54;1.50;99.90
12700;DHT22;6414;49.570;6.060;2022-12-05T07:04:39;1.50;99.90
12700;DHT22;6414;49.570;6.060;2022-12-05T07:07:25;1.50;99.90
12700;DHT22;6414;49.570;6.060;2022-12-05T07:10:10;1.50;99.90
12700;DHT22;6414;49.570;6.060;2022-12-05T07:12:56;1.40;99.90
12700;DHT22;6414;49.570;6.060;2022-12-05T07:15:41;1.50;99.90
12700;DHT22;6414;49.570;6.060;2022-12-05T07:18:26;1.60;99.90
12700;DHT22;6414;49.570;6.060;2022-12-05T07:21:12;1.50;99.90
12700;DHT22;6414;49.570;6.060;2022-12-05T07:23:57;1.40;99.90
12700;DHT22;6414;49.570;6.060;2022-12-05T07:26:43;1.40;99.90
12700;DHT22;6414;49.570;6.060;2022-12-05T07:29:28;1.40;99.90
12700;DHT22;6414;49.570;6.060;2022-12-05T07:32:14;1.50;99.90
12700;DHT22;6414;49.570;6.060;2022-12-05T07:34:59;1.50;99.90
12700;DHT22;6414;49.570;6.060;2022-12-05T07:37:45;1.40;99.90
12700;DHT22;6414;49.570;6.060;2022-12-05T07:40:31;1.30;99.90
12700;DHT22;6414;49.570;6.060;2022-12-05T07:43:17;1.30;99.90
12700;DHT22;6414;49.570;6.060;2022-12-05T07:46:06;1.40;99.90
12700;DHT22;6414;49.570;6.060;2022-12-05T07:48:47;1.50;99.90
12700;DHT22;6414;49.570;6.060;2022-12-05T07:51:34;1.50;99.90
12700;DHT22;6414;49.570;6.060;2022-12-05T07:54:19;1.50;99.90
12700;DHT22;6414;49.570;6.060;2022-12-05T07:57:04;1.50;99.90
12700;DHT22;6414;49.570;6.060;2022-12-05T07:59:49;1.40;99.90
12700;DHT22;6414;49.570;6.060;2022-12-05T08:02:35;1.50;99.90
12700;DHT22;6414;49.570;6.060;2022-12-05T08:05:21;1.50;99.90
12700;DHT22;6414;49.570;6.060;2022-12-05T08:08:06;1.50;99.90
12700;DHT22;6414;49.570;6.060;2022-12-05T08:10:51;1.50;99.90
12700;DHT22;6414;49.570;6.060;2022-12-05T08:13:37;1.50;99.90
12700;DHT22;6414;49.570;6.060;2022-12-05T08:16:23;1.50;99.90
12700;DHT22;6414;49.570;6.060;2022-12-05T08:19:09;1.60;99.90
12700;DHT22;6414;49.570;6.060;2022-12-05T08:21:54;1.70;99.90
12700;DHT22;6414;49.570;6.060;2022-12-05T08:24:40;1.70;99.90
12700;DHT22;6414;49.570;6.060;2022-12-05T08:27:25;1.70;99.90
12700;DHT22;6414;49.570;6.060;2022-12-05T08:30:11;1.70;99.90
12700;DHT22;6414;49.570;6.060;2022-12-05T08:32:57;1.80;99.90
12700;DHT22;6414;49.570;6.060;2022-12-05T08:35:42;1.70;99.90
12700;DHT22;6414;49.570;6.060;2022-12-05T08:38:28;1.70;99.90
12700;DHT22;6414;49.570;6.060;2022-12-05T08:41:14;1.70;99.90
12700;DHT22;6414;49.570;6.060;2022-12-05T08:44:00;1.50;99.90
12700;DHT22;6414;49.570;6.060;2022-12-05T08:46:46;1.50;99.90
12700;DHT22;6414;49.570;6.060;2022-12-05T08:49:31;1.50;99.90
12700;DHT22;6414;49.570;6.060;2022-12-05T08:52:17;1.70;99.90
12700;DHT22;6414;49.570;6.060;2022-12-05T08:55:02;1.60;99.90
12700;DHT22;6414;49.570;6.060;2022-12-05T08:57:48;1.70;99.90
12700;DHT22;6414;49.570;6.060;2022-12-05T09:00:34;1.60;99.90
12700;DHT22;6414;49.570;6.060;2022-12-05T09:03:20;1.70;99.90
12700;DHT22;6414;49.570;6.060;2022-12-05T09:06:19;1.70;99.90
12700;DHT22;6414;49.570;6.060;2022-12-05T09:09:02;1.70;99.90
12700;DHT22;6414;49.570;6.060;2022-12-05T09:11:46;1.70;99.90
12700;DHT22;6414;49.570;6.060;2022-12-05T09:14:31;1.90;99.90
12700;DHT22;6414;49.570;6.060;2022-12-05T09:17:18;2.00;99.90
12700;DHT22;6414;49.570;6.060;2022-12-05T09:20:03;1.90;99.90
12700;DHT22;6414;49.570;6.060;2022-12-05T09:22:48;2.00;99.90
12700;DHT22;6414;49.570;6.060;2022-12-05T09:25:34;2.10;99.90
12700;DHT22;6414;49.570;6.060;2022-12-05T09:28:20;2.00;99.90
12700;DHT22;6414;49.570;6.060;2022-12-05T09:31:06;2.10;99.90
12700;DHT22;6414;49.570;6.060;2022-12-05T09:33:50;2.10;99.90
12700;DHT22;6414;49.570;6.060;2022-12-05T09:36:36;2.10;99.90
12700;DHT22;6414;49.570;6.060;2022-12-05T09:39:22;2.20;99.90
12700;DHT22;6414;49.570;6.060;2022-12-05T09:45:17;2.30;99.90
12700;DHT22;6414;49.570;6.060;2022-12-05T09:48:10;2.30;99.90
12700;DHT22;6414;49.570;6.060;2022-12-05T09:51:01;2.20;99.90
12700;DHT22;6414;49.570;6.060;2022-12-05T09:53:46;2.40;99.90
12700;DHT22;6414;49.570;6.060;2022-12-05T09:56:31;2.40;99.90
12700;DHT22;6414;49.570;6.060;2022-12-05T09:59:17;2.40;99.90
12700;DHT22;6414;49.570;6.060;2022-12-05T10:02:14;2.40;99.90
12700;DHT22;6414;49.570;6.060;2022-12-05T10:04:54;2.50;99.90
12700;DHT22;6414;49.570;6.060;2022-12-05T10:07:52;2.60;99.90
12700;DHT22;6414;49.570;6.060;2022-12-05T10:10:43;2.60;99.90
12700;DHT22;6414;49.570;6.060;2022-12-05T10:13:44;2.50;99.90
12700;DHT22;6414;49.570;6.060;2022-12-05T10:16:36;2.50;99.90
12700;DHT22;6414;49.570;6.060;2022-12-05T10:19:32;2.50;99.90
12700;DHT22;6414;49.570;6.060;2022-12-05T10:22:18;2.50;99.90
12700;DHT22;6414;49.570;6.060;2022-12-05T10:25:02;2.50;99.90
12700;DHT22;6414;49.570;6.060;2022-12-05T10:27:51;2.50;99.90
12700;DHT22;6414;49.570;6.060;2022-12-05T10:30:35;2.50;99.90
12700;DHT22;6414;49.570;6.060;2022-12-05T10:33:20;2.40;99.90
12700;DHT22;6414;49.570;6.060;2022-12-05T10:36:10;2.50;99.90
12700;DHT22;6414;49.570;6.060;2022-12-05T10:38:54;2.60;99.90
12700;DHT22;6414;49.570;6.060;2022-12-05T10:41:40;2.60;99.90
12700;DHT22;6414;49.570;6.060;2022-12-05T10:44:26;2.60;99.90
12700;DHT22;6414;49.570;6.060;2022-12-05T10:47:11;2.60;99.90
12700;DHT22;6414;49.570;6.060;2022-12-05T10:49:57;2.70;99.90
12700;DHT22;6414;49.570;6.060;2022-12-05T10:52:42;2.70;99.90
12700;DHT22;6414;49.570;6.060;2022-12-05T11:17:36;3.00;99.90
12700;DHT22;6414;49.570;6.060;2022-12-05T11:23:25;2.80;99.90
12700;DHT22;6414;49.570;6.060;2022-12-05T11:26:40;2.80;99.90
12700;DHT22;6414;49.570;6.060;2022-12-05T11:29:04;2.80;99.90
12700;DHT22;6414;49.570;6.060;2022-12-05T11:31:50;2.70;99.90
12700;DHT22;6414;49.570;6.060;2022-12-05T11:37:52;2.80;99.90
12700;DHT22;6414;49.570;6.060;2022-12-05T11:46:45;2.80;99.90
12700;DHT22;6414;49.570;6.060;2022-12-05T11:52:51;2.80;99.90
12700;DHT22;6414;49.570;6.060;2022-12-05T11:58:53;2.90;99.90
12700;DHT22;6414;49.570;6.060;2022-12-05T12:10:51;3.00;99.90
12700;DHT22;6414;49.570;6.060;2022-12-05T12:25:54;3.40;99.90
12700;DHT22;6414;49.570;6.060;2022-12-05T12:29:05;3.60;99.90
12700;DHT22;6414;49.570;6.060;2022-12-05T12:35:02;3.40;99.90
12700;DHT22;6414;49.570;6.060;2022-12-05T12:37:49;3.50;99.90
12700;DHT22;6414;49.570;6.060;2022-12-05T12:40:35;3.60;99.90
12700;DHT22;6414;49.570;6.060;2022-12-05T12:53:19;3.40;99.90
12700;DHT22;6414;49.570;6.060;2022-12-05T12:55:36;3.50;99.90
12700;DHT22;6414;49.570;6.060;2022-12-05T12:58:35;3.60;99.90
12700;DHT22;6414;49.570;6.060;2022-12-05T13:04:24;3.80;99.90
12700;DHT22;6414;49.570;6.060;2022-12-05T13:07:07;3.80;99.90
12700;DHT22;6414;49.570;6.060;2022-12-05T13:10:05;3.80;99.90
12700;DHT22;6414;49.570;6.060;2022-12-05T13:12:39;3.80;99.90
12700;DHT22;6414;49.570;6.060;2022-12-05T13:15:47;3.90;99.90
12700;DHT22;6414;49.570;6.060;2022-12-05T13:18:32;3.80;99.90
12700;DHT22;6414;49.570;6.060;2022-12-05T13:21:17;3.90;99.90
12700;DHT22;6414;49.570;6.060;2022-12-05T13:24:02;3.80;99.90
12700;DHT22;6414;49.570;6.060;2022-12-05T13:26:48;3.90;99.90
12700;DHT22;6414;49.570;6.060;2022-12-05T13:29:39;3.90;99.90
12700;DHT22;6414;49.570;6.060;2022-12-05T13:32:39;3.80;99.90
12700;DHT22;6414;49.570;6.060;2022-12-05T13:35:36;3.80;99.90
12700;DHT22;6414;49.570;6.060;2022-12-05T13:38:40;3.70;99.90
12700;DHT22;6414;49.570;6.060;2022-12-05T13:41:48;3.80;99.90
12700;DHT22;6414;49.570;6.060;2022-12-05T13:44:51;3.80;99.90
12700;DHT22;6414;49.570;6.060;2022-12-05T13:50:49;3.80;99.90
12700;DHT22;6414;49.570;6.060;2022-12-05T13:53:41;3.80;99.90
12700;DHT22;6414;49.570;6.060;2022-12-05T13:56:27;3.70;99.90
12700;DHT22;6414;49.570;6.060;2022-12-05T13:59:12;3.70;99.90
12700;DHT22;6414;49.570;6.060;2022-12-05T14:01:57;3.80;99.90
12700;DHT22;6414;49.570;6.060;2022-12-05T14:04:44;3.70;99.90
12700;DHT22;6414;49.570;6.060;2022-12-05T14:07:36;3.70;99.90
12700;DHT22;6414;49.570;6.060;2022-12-05T14:19:44;3.60;99.90
12700;DHT22;6414;49.570;6.060;2022-12-05T14:31:10;3.50;99.90
12700;DHT22;6414;49.570;6.060;2022-12-05T14:34:21;3.50;99.90
12700;DHT22;6414;49.570;6.060;2022-12-05T14:40:15;3.50;99.90
12700;DHT22;6414;49.570;6.060;2022-12-05T14:42:57;3.50;99.90
12700;DHT22;6414;49.570;6.060;2022-12-05T14:48:43;3.50;99.90
12700;DHT22;6414;49.570;6.060;2022-12-05T14:54:19;3.40;99.90
12700;DHT22;6414;49.570;6.060;2022-12-05T14:57:10;3.40;99.90
12700;DHT22;6414;49.570;6.060;2022-12-05T15:00:00;3.40;99.90
12700;DHT22;6414;49.570;6.060;2022-12-05T15:02:46;3.40;99.90
12700;DHT22;6414;49.570;6.060;2022-12-05T15:05:31;3.40;99.90
12700;DHT22;6414;49.570;6.060;2022-12-05T15:08:17;3.50;99.90
12700;DHT22;6414;49.570;6.060;2022-12-05T15:11:02;3.50;99.90
12700;DHT22;6414;49.570;6.060;2022-12-05T15:13:48;3.40;99.90
12700;DHT22;6414;49.570;6.060;2022-12-05T15:16:39;3.40;99.90
12700;DHT22;6414;49.570;6.060;2022-12-05T15:19:31;3.30;99.90
12700;DHT22;6414;49.570;6.060;2022-12-05T15:22:15;3.30;99.90
12700;DHT22;6414;49.570;6.060;2022-12-05T15:25:13;3.40;99.90
12700;DHT22;6414;49.570;6.060;2022-12-05T15:27:59;3.20;99.90
12700;DHT22;6414;49.570;6.060;2022-12-05T15:30:43;3.30;99.90
12700;DHT22;6414;49.570;6.060;2022-12-05T15:33:28;3.30;99.90
12700;DHT22;6414;49.570;6.060;2022-12-05T15:36:14;3.30;99.90
12700;DHT22;6414;49.570;6.060;2022-12-05T15:39:13;3.30;99.90
12700;DHT22;6414;49.570;6.060;2022-12-05T15:41:48;3.20;99.90
12700;DHT22;6414;49.570;6.060;2022-12-05T15:44:33;3.30;99.90
12700;DHT22;6414;49.570;6.060;2022-12-05T15:47:19;3.20;99.90
12700;DHT22;6414;49.570;6.060;2022-12-05T15:50:04;3.10;99.90
12700;DHT22;6414;49.570;6.060;2022-12-05T15:53:03;3.10;99.90
12700;DHT22;6414;49.570;6.060;2022-12-05T15:55:45;3.10;99.90
12700;DHT22;6414;49.570;6.060;2022-12-05T15:58:33;3.10;99.90
12700;DHT22;6414;49.570;6.060;2022-12-05T16:01:19;3.10;99.90
12700;DHT22;6414;49.570;6.060;2022-12-05T16:04:17;3.10;99.90
12700;DHT22;6414;49.570;6.060;2022-12-05T16:07:02;3.00;99.90
12700;DHT22;6414;49.570;6.060;2022-12-05T16:09:45;3.10;99.90
12700;DHT22;6414;49.570;6.060;2022-12-05T16:12:37;2.90;99.90
12700;DHT22;6414;49.570;6.060;2022-12-05T16:15:25;3.00;99.90
12700;DHT22;6414;49.570;6.060;2022-12-05T16:18:20;3.00;99.90
12700;DHT22;6414;49.570;6.060;2022-12-05T16:20:53;3.00;99.90
12700;DHT22;6414;49.570;6.060;2022-12-05T16:23:38;3.00;99.90
12700;DHT22;6414;49.570;6.060;2022-12-05T16:26:25;3.00;99.90
12700;DHT22;6414;49.570;6.060;2022-12-05T16:29:29;2.90;99.90
12700;DHT22;6414;49.570;6.060;2022-12-05T16:32:23;3.00;99.90
12700;DHT22;6414;49.570;6.060;2022-12-05T16:35:40;2.90;99.90
12700;DHT22;6414;49.570;6.060;2022-12-05T16:38:24;3.00;99.90
12700;DHT22;6414;49.570;6.060;2022-12-05T16:41:08;2.90;99.90
12700;DHT22;6414;49.570;6.060;2022-12-05T16:43:53;2.90;99.90
12700;DHT22;6414;49.570;6.060;2022-12-05T16:46:40;2.90;99.90
12700;DHT22;6414;49.570;6.060;2022-12-05T16:49:34;3.00;99.90
12700;DHT22;6414;49.570;6.060;2022-12-05T16:52:20;2.90;99.90
12700;DHT22;6414;49.570;6.060;2022-12-05T16:55:09;2.90;99.90
12700;DHT22;6414;49.570;6.060;2022-12-05T16:57:52;2.90;99.90
12700;DHT22;6414;49.570;6.060;2022-12-05T17:00:37;2.90;99.90
12700;DHT22;6414;49.570;6.060;2022-12-05T17:03:23;2.90;99.90
12700;DHT22;6414;49.570;6.060;2022-12-05T17:06:10;2.90;99.90
12700;DHT22;6414;49.570;6.060;2022-12-05T17:08:55;2.90;99.90
12700;DHT22;6414;49.570;6.060;2022-12-05T17:11:42;2.90;99.90
12700;DHT22;6414;49.570;6.060;2022-12-05T17:14:26;2.90;99.90
12700;DHT22;6414;49.570;6.060;2022-12-05T17:17:12;2.90;99.90
12700;DHT22;6414;49.570;6.060;2022-12-05T17:19:58;2.90;99.90
12700;DHT22;6414;49.570;6.060;2022-12-05T17:22:43;2.80;99.90
12700;DHT22;6414;49.570;6.060;2022-12-05T17:25:32;2.70;99.90
12700;DHT22;6414;49.570;6.060;2022-12-05T17:28:17;2.70;99.90
12700;DHT22;6414;49.570;6.060;2022-12-05T17:31:02;2.80;99.90
12700;DHT22;6414;49.570;6.060;2022-12-05T17:33:48;2.80;99.90
12700;DHT22;6414;49.570;6.060;2022-12-05T17:36:34;2.70;99.90
12700;DHT22;6414;49.570;6.060;2022-12-05T17:39:20;2.60;99.90
12700;DHT22;6414;49.570;6.060;2022-12-05T17:42:05;2.50;99.90
12700;DHT22;6414;49.570;6.060;2022-12-05T17:44:51;2.60;99.90
12700;DHT22;6414;49.570;6.060;2022-12-05T17:47:36;2.50;99.90
12700;DHT22;6414;49.570;6.060;2022-12-05T17:50:22;2.40;99.90
12700;DHT22;6414;49.570;6.060;2022-12-05T17:53:08;2.40;99.90
12700;DHT22;6414;49.570;6.060;2022-12-05T17:55:53;2.40;99.90
12700;DHT22;6414;49.570;6.060;2022-12-05T17:58:39;2.50;99.90
12700;DHT22;6414;49.570;6.060;2022-12-05T18:01:24;2.50;99.90
12700;DHT22;6414;49.570;6.060;2022-12-05T18:04:09;2.60;99.90
12700;DHT22;6414;49.570;6.060;2022-12-05T18:06:55;2.60;99.90
12700;DHT22;6414;49.570;6.060;2022-12-05T18:09:41;2.50;99.90
12700;DHT22;6414;49.570;6.060;2022-12-05T18:12:26;2.40;99.90
12700;DHT22;6414;49.570;6.060;2022-12-05T18:15:11;2.50;99.90
12700;DHT22;6414;49.570;6.060;2022-12-05T18:17:57;2.40;99.90
12700;DHT22;6414;49.570;6.060;2022-12-05T18:20:42;2.60;99.90
12700;DHT22;6414;49.570;6.060;2022-12-05T18:23:28;2.70;99.90
12700;DHT22;6414;49.570;6.060;2022-12-05T18:26:14;2.50;99.90
12700;DHT22;6414;49.570;6.060;2022-12-05T18:29:00;2.50;99.90
12700;DHT22;6414;49.570;6.060;2022-12-05T18:31:45;2.30;99.90
12700;DHT22;6414;49.570;6.060;2022-12-05T18:34:31;2.30;99.90
12700;DHT22;6414;49.570;6.060;2022-12-05T18:37:16;2.30;99.90
12700;DHT22;6414;49.570;6.060;2022-12-05T18:40:03;2.30;99.90
12700;DHT22;6414;49.570;6.060;2022-12-05T18:42:48;2.30;99.90
12700;DHT22;6414;49.570;6.060;2022-12-05T18:45:33;2.20;99.90
12700;DHT22;6414;49.570;6.060;2022-12-05T18:48:19;2.20;99.90
12700;DHT22;6414;49.570;6.060;2022-12-05T18:51:17;2.20;99.90
12700;DHT22;6414;49.570;6.060;2022-12-05T18:54:01;2.40;99.90
12700;DHT22;6414;49.570;6.060;2022-12-05T18:56:46;2.40;99.90
12700;DHT22;6414;49.570;6.060;2022-12-05T18:59:33;2.50;99.90
12700;DHT22;6414;49.570;6.060;2022-12-05T19:02:18;2.50;99.90
12700;DHT22;6414;49.570;6.060;2022-12-05T19:05:04;2.50;99.90
12700;DHT22;6414;49.570;6.060;2022-12-05T19:07:52;2.50;99.90
12700;DHT22;6414;49.570;6.060;2022-12-05T19:10:37;2.50;99.90
12700;DHT22;6414;49.570;6.060;2022-12-05T19:13:22;2.50;99.90
12700;DHT22;6414;49.570;6.060;2022-12-05T19:16:09;2.40;99.90
12700;DHT22;6414;49.570;6.060;2022-12-05T19:18:53;2.40;99.90
12700;DHT22;6414;49.570;6.060;2022-12-05T19:21:38;2.40;99.90
12700;DHT22;6414;49.570;6.060;2022-12-05T19:24:24;2.40;99.90
12700;DHT22;6414;49.570;6.060;2022-12-05T19:27:09;2.30;99.90
12700;DHT22;6414;49.570;6.060;2022-12-05T19:29:55;2.20;99.90
12700;DHT22;6414;49.570;6.060;2022-12-05T19:32:41;2.20;99.90
12700;DHT22;6414;49.570;6.060;2022-12-05T19:35:27;2.20;99.90
12700;DHT22;6414;49.570;6.060;2022-12-05T19:38:13;2.30;99.90
12700;DHT22;6414;49.570;6.060;2022-12-05T19:40:58;2.40;99.90
12700;DHT22;6414;49.570;6.060;2022-12-05T19:43:43;2.30;99.90
12700;DHT22;6414;49.570;6.060;2022-12-05T19:46:29;2.40;99.90
12700;DHT22;6414;49.570;6.060;2022-12-05T19:49:15;2.40;99.90
12700;DHT22;6414;49.570;6.060;2022-12-05T19:52:00;2.40;99.90
12700;DHT22;6414;49.570;6.060;2022-12-05T19:54:46;2.50;99.90
12700;DHT22;6414;49.570;6.060;2022-12-05T19:57:33;2.50;99.90
12700;DHT22;6414;49.570;6.060;2022-12-05T20:00:18;2.40;99.90
12700;DHT22;6414;49.570;6.060;2022-12-05T20:03:04;2.40;99.90
12700;DHT22;6414;49.570;6.060;2022-12-05T20:05:56;2.40;99.90
12700;DHT22;6414;49.570;6.060;2022-12-05T20:08:41;2.20;99.90
12700;DHT22;6414;49.570;6.060;2022-12-05T20:11:27;2.20;99.90
12700;DHT22;6414;49.570;6.060;2022-12-05T20:14:12;2.10;99.90
12700;DHT22;6414;49.570;6.060;2022-12-05T20:16:58;2.20;99.90
12700;DHT22;6414;49.570;6.060;2022-12-05T20:19:44;2.10;99.90